sensor_id;sensor_type;location;lat;lon;timestamp;P1;durP1;ratioP1;P2;durP2;ratioP2
23370;SDS011;11858;51.056;3.712;2023-01-15T00:00:47;12.32;;;2.65;;
23370;SDS011;11858;51.056;3.712;2023-01-15T00:03:12;10.60;;;2.47;;
23370;SDS011;11858;51.056;3.712;2023-01-15T00:05:38;17.17;;;2.90;;
23370;SDS011;11858;51.056;3.712;2023-01-15T00:08:04;9.18;;;2.55;;
23370;SDS011;11858;51.056;3.712;2023-01-15T00:10:30;8.32;;;2.63;;
23370;SDS011;11858;51.056;3.712;2023-01-15T00:12:56;10.90;;;2.67;;
23370;SDS011;11858;51.056;3.712;2023-01-15T00:15:22;10.65;;;2.97;;
23370;SDS011;11858;51.056;3.712;2023-01-15T00:17:48;14.70;;;2.85;;
23370;SDS011;11858;51.056;3.712;2023-01-15T00:20:14;14.98;;;3.08;;
23370;SDS011;11858;51.056;3.712;2023-01-15T00:22:39;15.75;;;2.53;;
23370;SDS011;11858;51.056;3.712;2023-01-15T00:25:05;19.75;;;3.70;;
23370;SDS011;11858;51.056;3.712;2023-01-15T00:27:50;8.98;;;2.60;;
23370;SDS011;11858;51.056;3.712;2023-01-15T00:30:16;9.45;;;2.55;;
23370;SDS011;11858;51.056;3.712;2023-01-15T00:32:42;10.10;;;2.42;;
23370;SDS011;11858;51.056;3.712;2023-01-15T00:35:13;10.90;;;2.95;;
23370;SDS011;11858;51.056;3.712;2023-01-15T00:37:41;12.45;;;3.08;;
23370;SDS011;11858;51.056;3.712;2023-01-15T00:40:07;12.75;;;3.08;;
23370;SDS011;11858;51.056;3.712;2023-01-15T00:42:34;12.15;;;3.08;;
23370;SDS011;11858;51.056;3.712;2023-01-15T00:45:00;10.07;;;2.80;;
23370;SDS011;11858;51.056;3.712;2023-01-15T00:47:33;16.20;;;2.97;;
23370;SDS011;11858;51.056;3.712;2023-01-15T00:50:04;17.30;;;2.67;;
23370;SDS011;11858;51.056;3.712;2023-01-15T00:52:32;12.93;;;2.80;;
23370;SDS011;11858;51.056;3.712;2023-01-15T00:54:58;14.00;;;3.00;;
23370;SDS011;11858;51.056;3.712;2023-01-15T00:57:24;15.93;;;3.10;;
23370;SDS011;11858;51.056;3.712;2023-01-15T00:59:49;10.25;;;2.50;;
23370;SDS011;11858;51.056;3.712;2023-01-15T01:02:15;8.27;;;2.55;;
23370;SDS011;11858;51.056;3.712;2023-01-15T01:04:41;12.77;;;2.85;;
23370;SDS011;11858;51.056;3.712;2023-01-15T01:07:07;10.68;;;3.00;;
23370;SDS011;11858;51.056;3.712;2023-01-15T01:09:33;21.50;;;3.35;;
23370;SDS011;11858;51.056;3.712;2023-01-15T01:11:59;12.02;;;2.83;;
23370;SDS011;11858;51.056;3.712;2023-01-15T01:14:26;16.48;;;3.00;;
23370;SDS011;11858;51.056;3.712;2023-01-15T01:16:52;14.82;;;3.15;;
23370;SDS011;11858;51.056;3.712;2023-01-15T01:19:20;12.25;;;2.88;;
23370;SDS011;11858;51.056;3.712;2023-01-15T01:21:47;12.95;;;2.92;;
23370;SDS011;11858;51.056;3.712;2023-01-15T01:24:15;10.40;;;2.55;;
23370;SDS011;11858;51.056;3.712;2023-01-15T01:26:43;13.23;;;2.78;;
23370;SDS011;11858;51.056;3.712;2023-01-15T01:29:17;12.40;;;2.90;;
23370;SDS011;11858;51.056;3.712;2023-01-15T01:31:44;11.35;;;3.15;;
23370;SDS011;11858;51.056;3.712;2023-01-15T01:34:11;10.13;;;2.78;;
23370;SDS011;11858;51.056;3.712;2023-01-15T01:36:39;16.48;;;3.00;;
23370;SDS011;11858;51.056;3.712;2023-01-15T01:39:08;21.73;;;3.67;;
23370;SDS011;11858;51.056;3.712;2023-01-15T01:44:06;11.05;;;3.35;;
23370;SDS011;11858;51.056;3.712;2023-01-15T01:46:50;13.50;;;3.10;;
23370;SDS011;11858;51.056;3.712;2023-01-15T01:49:16;15.32;;;3.35;;
23370;SDS011;11858;51.056;3.712;2023-01-15T01:51:43;17.52;;;3.53;;
23370;SDS011;11858;51.056;3.712;2023-01-15T01:54:13;14.60;;;4.03;;
23370;SDS011;11858;51.056;3.712;2023-01-15T01:56:42;15.65;;;3.80;;
23370;SDS011;11858;51.056;3.712;2023-01-15T01:59:08;14.32;;;3.90;;
23370;SDS011;11858;51.056;3.712;2023-01-15T02:01:34;18.60;;;3.70;;
23370;SDS011;11858;51.056;3.712;2023-01-15T02:04:00;17.58;;;3.28;;
23370;SDS011;11858;51.056;3.712;2023-01-15T02:06:27;16.80;;;3.30;;
23370;SDS011;11858;51.056;3.712;2023-01-15T02:08:54;14.85;;;3.05;;
23370;SDS011;11858;51.056;3.712;2023-01-15T02:11:21;12.82;;;3.15;;
23370;SDS011;11858;51.056;3.712;2023-01-15T02:13:51;18.25;;;3.42;;
23370;SDS011;11858;51.056;3.712;2023-01-15T02:16:27;18.73;;;3.47;;
23370;SDS011;11858;51.056;3.712;2023-01-15T02:27:55;12.93;;;3.25;;
23370;SDS011;11858;51.056;3.712;2023-01-15T02:33:03;15.05;;;3.30;;
23370;SDS011;11858;51.056;3.712;2023-01-15T02:38:14;11.98;;;2.90;;
23370;SDS011;11858;51.056;3.712;2023-01-15T02:40:42;13.90;;;2.83;;
23370;SDS011;11858;51.056;3.712;2023-01-15T02:43:10;16.77;;;3.38;;
23370;SDS011;11858;51.056;3.712;2023-01-15T02:45:38;15.07;;;3.17;;
23370;SDS011;11858;51.056;3.712;2023-01-15T02:48:08;14.25;;;3.08;;
23370;SDS011;11858;51.056;3.712;2023-01-15T02:50:39;19.08;;;3.30;;
23370;SDS011;11858;51.056;3.712;2023-01-15T02:53:08;16.83;;;3.20;;
23370;SDS011;11858;51.056;3.712;2023-01-15T02:55:40;13.95;;;3.00;;
23370;SDS011;11858;51.056;3.712;2023-01-15T02:58:09;13.25;;;3.38;;
23370;SDS011;11858;51.056;3.712;2023-01-15T03:00:39;20.20;;;4.15;;
23370;SDS011;11858;51.056;3.712;2023-01-15T03:06:16;14.38;;;2.92;;
23370;SDS011;11858;51.056;3.712;2023-01-15T03:08:49;14.45;;;3.30;;
23370;SDS011;11858;51.056;3.712;2023-01-15T03:11:16;12.43;;;3.05;;
23370;SDS011;11858;51.056;3.712;2023-01-15T03:22:10;13.50;;;3.10;;
23370;SDS011;11858;51.056;3.712;2023-01-15T03:24:48;11.77;;;3.35;;
23370;SDS011;11858;51.056;3.712;2023-01-15T03:27:28;12.55;;;2.92;;
23370;SDS011;11858;51.056;3.712;2023-01-15T03:29:57;14.98;;;3.50;;
23370;SDS011;11858;51.056;3.712;2023-01-15T03:32:37;13.35;;;3.05;;
23370;SDS011;11858;51.056;3.712;2023-01-15T03:35:04;10.25;;;3.10;;
23370;SDS011;11858;51.056;3.712;2023-01-15T03:37:53;16.02;;;3.67;;
23370;SDS011;11858;51.056;3.712;2023-01-15T03:40:19;10.20;;;3.20;;
23370;SDS011;11858;51.056;3.712;2023-01-15T03:42:53;18.83;;;3.38;;
23370;SDS011;11858;51.056;3.712;2023-01-15T03:45:43;16.02;;;3.33;;
23370;SDS011;11858;51.056;3.712;2023-01-15T03:50:49;18.02;;;3.88;;
23370;SDS011;11858;51.056;3.712;2023-01-15T03:55:53;15.48;;;3.30;;
23370;SDS011;11858;51.056;3.712;2023-01-15T04:01:27;20.52;;;3.40;;
23370;SDS011;11858;51.056;3.712;2023-01-15T04:03:58;21.98;;;3.63;;
23370;SDS011;11858;51.056;3.712;2023-01-15T04:06:29;11.38;;;2.80;;
23370;SDS011;11858;51.056;3.712;2023-01-15T04:08:58;15.73;;;2.80;;
23370;SDS011;11858;51.056;3.712;2023-01-15T04:11:26;20.55;;;3.28;;
23370;SDS011;11858;51.056;3.712;2023-01-15T04:13:52;12.05;;;3.08;;
23370;SDS011;11858;51.056;3.712;2023-01-15T04:16:24;19.17;;;3.20;;
23370;SDS011;11858;51.056;3.712;2023-01-15T04:18:52;8.77;;;2.67;;
23370;SDS011;11858;51.056;3.712;2023-01-15T04:21:18;20.45;;;3.58;;
23370;SDS011;11858;51.056;3.712;2023-01-15T04:23:44;13.95;;;3.08;;
23370;SDS011;11858;51.056;3.712;2023-01-15T04:26:10;14.30;;;2.80;;
23370;SDS011;11858;51.056;3.712;2023-01-15T04:28:37;14.80;;;2.92;;
23370;SDS011;11858;51.056;3.712;2023-01-15T04:31:03;14.93;;;3.28;;
23370;SDS011;11858;51.056;3.712;2023-01-15T04:33:29;11.95;;;2.63;;
23370;SDS011;11858;51.056;3.712;2023-01-15T04:35:57;12.18;;;2.78;;
23370;SDS011;11858;51.056;3.712;2023-01-15T04:38:25;16.63;;;3.13;;
23370;SDS011;11858;51.056;3.712;2023-01-15T04:40:51;10.68;;;2.83;;
23370;SDS011;11858;51.056;3.712;2023-01-15T04:43:36;7.68;;;2.40;;
23370;SDS011;11858;51.056;3.712;2023-01-15T04:46:23;16.48;;;3.20;;
23370;SDS011;11858;51.056;3.712;2023-01-15T04:48:49;10.80;;;2.35;;
23370;SDS011;11858;51.056;3.712;2023-01-15T04:51:16;20.40;;;3.05;;
23370;SDS011;11858;51.056;3.712;2023-01-15T04:53:42;13.63;;;2.83;;
23370;SDS011;11858;51.056;3.712;2023-01-15T04:56:08;11.60;;;2.28;;
23370;SDS011;11858;51.056;3.712;2023-01-15T04:58:34;13.80;;;2.30;;
23370;SDS011;11858;51.056;3.712;2023-01-15T05:01:02;13.35;;;2.22;;
23370;SDS011;11858;51.056;3.712;2023-01-15T05:03:33;14.77;;;2.60;;
23370;SDS011;11858;51.056;3.712;2023-01-15T05:06:00;9.38;;;2.45;;
23370;SDS011;11858;51.056;3.712;2023-01-15T05:08:26;17.40;;;2.30;;
23370;SDS011;11858;51.056;3.712;2023-01-15T05:10:53;15.52;;;2.60;;
23370;SDS011;11858;51.056;3.712;2023-01-15T05:13:19;9.38;;;2.47;;
23370;SDS011;11858;51.056;3.712;2023-01-15T05:15:44;15.75;;;3.00;;
23370;SDS011;11858;51.056;3.712;2023-01-15T05:18:12;13.75;;;2.92;;
23370;SDS011;11858;51.056;3.712;2023-01-15T05:20:42;15.45;;;2.92;;
23370;SDS011;11858;51.056;3.712;2023-01-15T05:23:08;9.32;;;3.20;;
23370;SDS011;11858;51.056;3.712;2023-01-15T05:25:37;9.45;;;2.40;;
23370;SDS011;11858;51.056;3.712;2023-01-15T05:28:03;12.13;;;2.85;;
23370;SDS011;11858;51.056;3.712;2023-01-15T05:30:30;12.20;;;2.72;;
23370;SDS011;11858;51.056;3.712;2023-01-15T05:32:55;9.30;;;2.85;;
23370;SDS011;11858;51.056;3.712;2023-01-15T05:35:21;9.35;;;2.60;;
23370;SDS011;11858;51.056;3.712;2023-01-15T05:37:50;9.75;;;2.40;;
23370;SDS011;11858;51.056;3.712;2023-01-15T05:40:16;6.65;;;2.50;;
23370;SDS011;11858;51.056;3.712;2023-01-15T05:42:43;11.90;;;2.90;;
23370;SDS011;11858;51.056;3.712;2023-01-15T05:45:09;12.82;;;2.80;;
23370;SDS011;11858;51.056;3.712;2023-01-15T05:47:35;10.27;;;2.60;;
23370;SDS011;11858;51.056;3.712;2023-01-15T05:50:01;8.88;;;2.40;;
23370;SDS011;11858;51.056;3.712;2023-01-15T05:52:28;8.20;;;2.35;;
23370;SDS011;11858;51.056;3.712;2023-01-15T05:54:53;13.02;;;2.83;;
23370;SDS011;11858;51.056;3.712;2023-01-15T05:57:19;5.68;;;2.03;;
23370;SDS011;11858;51.056;3.712;2023-01-15T05:59:46;6.90;;;2.42;;
23370;SDS011;11858;51.056;3.712;2023-01-15T06:02:17;6.50;;;2.90;;
23370;SDS011;11858;51.056;3.712;2023-01-15T06:04:46;12.63;;;3.60;;
23370;SDS011;11858;51.056;3.712;2023-01-15T06:07:13;9.48;;;2.90;;
23370;SDS011;11858;51.056;3.712;2023-01-15T06:09:41;10.75;;;2.88;;
23370;SDS011;11858;51.056;3.712;2023-01-15T06:12:07;10.50;;;2.40;;
23370;SDS011;11858;51.056;3.712;2023-01-15T06:14:33;9.60;;;2.10;;
23370;SDS011;11858;51.056;3.712;2023-01-15T06:16:59;11.30;;;2.20;;
23370;SDS011;11858;51.056;3.712;2023-01-15T06:19:25;7.43;;;1.80;;
23370;SDS011;11858;51.056;3.712;2023-01-15T06:21:53;14.75;;;2.70;;
23370;SDS011;11858;51.056;3.712;2023-01-15T06:24:20;17.48;;;3.08;;
23370;SDS011;11858;51.056;3.712;2023-01-15T06:26:49;13.90;;;3.10;;
23370;SDS011;11858;51.056;3.712;2023-01-15T06:29:18;13.77;;;2.30;;
23370;SDS011;11858;51.056;3.712;2023-01-15T06:31:44;11.05;;;2.47;;
23370;SDS011;11858;51.056;3.712;2023-01-15T06:34:14;9.40;;;2.55;;
23370;SDS011;11858;51.056;3.712;2023-01-15T06:36:41;17.17;;;2.70;;
23370;SDS011;11858;51.056;3.712;2023-01-15T06:39:09;13.95;;;2.53;;
23370;SDS011;11858;51.056;3.712;2023-01-15T06:41:36;12.73;;;2.60;;
23370;SDS011;11858;51.056;3.712;2023-01-15T06:44:21;13.20;;;2.83;;
23370;SDS011;11858;51.056;3.712;2023-01-15T06:47:12;16.30;;;2.50;;
23370;SDS011;11858;51.056;3.712;2023-01-15T06:49:47;14.80;;;2.50;;
23370;SDS011;11858;51.056;3.712;2023-01-15T06:54:46;14.02;;;2.20;;
23370;SDS011;11858;51.056;3.712;2023-01-15T06:57:12;14.18;;;2.58;;
23370;SDS011;11858;51.056;3.712;2023-01-15T06:59:47;16.73;;;2.83;;
23370;SDS011;11858;51.056;3.712;2023-01-15T07:02:19;11.13;;;2.22;;
23370;SDS011;11858;51.056;3.712;2023-01-15T07:04:46;13.05;;;2.75;;
23370;SDS011;11858;51.056;3.712;2023-01-15T07:07:17;14.00;;;2.53;;
23370;SDS011;11858;51.056;3.712;2023-01-15T07:09:44;15.63;;;2.95;;
23370;SDS011;11858;51.056;3.712;2023-01-15T07:12:13;13.45;;;2.30;;
23370;SDS011;11858;51.056;3.712;2023-01-15T07:14:45;11.07;;;2.42;;
23370;SDS011;11858;51.056;3.712;2023-01-15T07:17:11;16.10;;;2.47;;
23370;SDS011;11858;51.056;3.712;2023-01-15T07:19:38;9.85;;;2.25;;
23370;SDS011;11858;51.056;3.712;2023-01-15T07:22:05;14.55;;;2.90;;
23370;SDS011;11858;51.056;3.712;2023-01-15T07:24:32;13.90;;;2.20;;
23370;SDS011;11858;51.056;3.712;2023-01-15T07:26:58;17.65;;;2.47;;
23370;SDS011;11858;51.056;3.712;2023-01-15T07:29:27;15.82;;;2.55;;
23370;SDS011;11858;51.056;3.712;2023-01-15T07:31:53;15.65;;;2.80;;
23370;SDS011;11858;51.056;3.712;2023-01-15T07:34:20;12.13;;;2.50;;
23370;SDS011;11858;51.056;3.712;2023-01-15T07:36:46;14.88;;;2.30;;
23370;SDS011;11858;51.056;3.712;2023-01-15T07:39:17;10.48;;;2.10;;
23370;SDS011;11858;51.056;3.712;2023-01-15T07:41:43;21.40;;;3.30;;
23370;SDS011;11858;51.056;3.712;2023-01-15T07:44:31;11.80;;;2.50;;
23370;SDS011;11858;51.056;3.712;2023-01-15T07:47:19;9.57;;;2.30;;
23370;SDS011;11858;51.056;3.712;2023-01-15T07:50:13;10.32;;;2.47;;
23370;SDS011;11858;51.056;3.712;2023-01-15T07:52:44;10.02;;;2.33;;
23370;SDS011;11858;51.056;3.712;2023-01-15T07:55:10;14.13;;;2.50;;
23370;SDS011;11858;51.056;3.712;2023-01-15T07:57:40;13.43;;;2.60;;
23370;SDS011;11858;51.056;3.712;2023-01-15T08:00:15;16.52;;;2.60;;
23370;SDS011;11858;51.056;3.712;2023-01-15T08:02:45;13.68;;;2.63;;
23370;SDS011;11858;51.056;3.712;2023-01-15T08:05:14;12.52;;;2.63;;
23370;SDS011;11858;51.056;3.712;2023-01-15T08:07:43;14.32;;;2.42;;
23370;SDS011;11858;51.056;3.712;2023-01-15T08:10:10;16.40;;;2.95;;
23370;SDS011;11858;51.056;3.712;2023-01-15T08:12:40;12.93;;;2.40;;
23370;SDS011;11858;51.056;3.712;2023-01-15T08:15:27;14.27;;;2.67;;
23370;SDS011;11858;51.056;3.712;2023-01-15T08:17:57;21.02;;;3.33;;
23370;SDS011;11858;51.056;3.712;2023-01-15T08:20:24;13.32;;;2.70;;
23370;SDS011;11858;51.056;3.712;2023-01-15T08:22:51;14.02;;;2.55;;
23370;SDS011;11858;51.056;3.712;2023-01-15T08:25:22;12.73;;;3.05;;
23370;SDS011;11858;51.056;3.712;2023-01-15T08:27:53;20.65;;;3.42;;
23370;SDS011;11858;51.056;3.712;2023-01-15T08:30:23;12.10;;;3.22;;
23370;SDS011;11858;51.056;3.712;2023-01-15T08:32:49;12.40;;;2.90;;
23370;SDS011;11858;51.056;3.712;2023-01-15T08:35:16;16.52;;;2.97;;
23370;SDS011;11858;51.056;3.712;2023-01-15T08:37:51;14.18;;;2.80;;
23370;SDS011;11858;51.056;3.712;2023-01-15T08:40:17;13.00;;;2.90;;
23370;SDS011;11858;51.056;3.712;2023-01-15T08:42:43;14.27;;;2.67;;
23370;SDS011;11858;51.056;3.712;2023-01-15T08:45:09;13.73;;;2.88;;
23370;SDS011;11858;51.056;3.712;2023-01-15T08:47:42;15.50;;;3.42;;
23370;SDS011;11858;51.056;3.712;2023-01-15T08:50:27;14.38;;;3.45;;
23370;SDS011;11858;51.056;3.712;2023-01-15T08:52:57;13.48;;;3.33;;
23370;SDS011;11858;51.056;3.712;2023-01-15T08:55:29;11.57;;;3.38;;
23370;SDS011;11858;51.056;3.712;2023-01-15T08:57:57;9.32;;;3.22;;
23370;SDS011;11858;51.056;3.712;2023-01-15T09:00:31;10.90;;;3.15;;
23370;SDS011;11858;51.056;3.712;2023-01-15T09:02:57;9.15;;;2.80;;
23370;SDS011;11858;51.056;3.712;2023-01-15T09:05:40;12.90;;;3.38;;
23370;SDS011;11858;51.056;3.712;2023-01-15T09:08:09;13.75;;;2.80;;
23370;SDS011;11858;51.056;3.712;2023-01-15T09:10:39;12.55;;;3.20;;
23370;SDS011;11858;51.056;3.712;2023-01-15T09:13:11;15.75;;;3.35;;
23370;SDS011;11858;51.056;3.712;2023-01-15T09:15:57;13.27;;;3.10;;
23370;SDS011;11858;51.056;3.712;2023-01-15T09:18:36;13.32;;;2.90;;
23370;SDS011;11858;51.056;3.712;2023-01-15T09:21:26;8.65;;;2.72;;
23370;SDS011;11858;51.056;3.712;2023-01-15T09:24:18;9.63;;;2.80;;
23370;SDS011;11858;51.056;3.712;2023-01-15T09:26:44;9.90;;;2.63;;
23370;SDS011;11858;51.056;3.712;2023-01-15T09:29:17;11.32;;;3.00;;
23370;SDS011;11858;51.056;3.712;2023-01-15T09:31:46;13.02;;;3.13;;
23370;SDS011;11858;51.056;3.712;2023-01-15T09:34:14;13.63;;;2.78;;
23370;SDS011;11858;51.056;3.712;2023-01-15T09:36:45;18.40;;;2.38;;
23370;SDS011;11858;51.056;3.712;2023-01-15T09:39:11;4.75;;;2.03;;
23370;SDS011;11858;51.056;3.712;2023-01-15T09:48:45;9.35;;;2.40;;
23370;SDS011;11858;51.056;3.712;2023-01-15T09:50:47;5.80;;;1.80;;
23370;SDS011;11858;51.056;3.712;2023-01-15T09:55:56;4.75;;;1.73;;
23370;SDS011;11858;51.056;3.712;2023-01-15T09:58:35;4.70;;;1.10;;
23370;SDS011;11858;51.056;3.712;2023-01-15T10:01:03;7.38;;;1.60;;
23370;SDS011;11858;51.056;3.712;2023-01-15T10:03:32;6.78;;;1.23;;
23370;SDS011;11858;51.056;3.712;2023-01-15T10:06:12;5.95;;;1.42;;
23370;SDS011;11858;51.056;3.712;2023-01-15T10:08:48;2.05;;;1.08;;
23370;SDS011;11858;51.056;3.712;2023-01-15T10:14:42;1.92;;;1.05;;
23370;SDS011;11858;51.056;3.712;2023-01-15T10:17:18;3.55;;;1.50;;
23370;SDS011;11858;51.056;3.712;2023-01-15T10:19:48;5.88;;;1.83;;
23370;SDS011;11858;51.056;3.712;2023-01-15T10:22:19;5.20;;;2.08;;
23370;SDS011;11858;51.056;3.712;2023-01-15T10:24:59;3.92;;;2.00;;
23370;SDS011;11858;51.056;3.712;2023-01-15T10:27:31;7.30;;;1.83;;
23370;SDS011;11858;51.056;3.712;2023-01-15T10:30:04;6.70;;;2.00;;
23370;SDS011;11858;51.056;3.712;2023-01-15T10:35:50;7.60;;;1.88;;
23370;SDS011;11858;51.056;3.712;2023-01-15T10:47:14;10.68;;;2.08;;
23370;SDS011;11858;51.056;3.712;2023-01-15T10:49:45;12.43;;;1.80;;
23370;SDS011;11858;51.056;3.712;2023-01-15T10:52:22;9.07;;;1.83;;
23370;SDS011;11858;51.056;3.712;2023-01-15T10:58:36;7.53;;;2.30;;
23370;SDS011;11858;51.056;3.712;2023-01-15T11:01:31;11.88;;;2.67;;
23370;SDS011;11858;51.056;3.712;2023-01-15T11:04:09;10.95;;;2.33;;
23370;SDS011;11858;51.056;3.712;2023-01-15T11:06:44;8.07;;;2.00;;
23370;SDS011;11858;51.056;3.712;2023-01-15T11:09:17;4.55;;;1.40;;
23370;SDS011;11858;51.056;3.712;2023-01-15T11:12:27;8.55;;;1.73;;
23370;SDS011;11858;51.056;3.712;2023-01-15T11:15:17;6.20;;;2.03;;
23370;SDS011;11858;51.056;3.712;2023-01-15T11:18:12;3.95;;;1.42;;
23370;SDS011;11858;51.056;3.712;2023-01-15T11:21:00;10.85;;;2.30;;
23370;SDS011;11858;51.056;3.712;2023-01-15T11:23:43;8.88;;;2.17;;
23370;SDS011;11858;51.056;3.712;2023-01-15T11:26:20;9.68;;;2.20;;
23370;SDS011;11858;51.056;3.712;2023-01-15T11:28:53;8.60;;;1.90;;
23370;SDS011;11858;51.056;3.712;2023-01-15T11:31:21;8.77;;;1.98;;
23370;SDS011;11858;51.056;3.712;2023-01-15T11:33:57;5.63;;;1.65;;
23370;SDS011;11858;51.056;3.712;2023-01-15T11:36:36;4.72;;;1.70;;
23370;SDS011;11858;51.056;3.712;2023-01-15T11:39:19;4.97;;;2.00;;
23370;SDS011;11858;51.056;3.712;2023-01-15T11:42:03;5.50;;;2.47;;
23370;SDS011;11858;51.056;3.712;2023-01-15T11:44:57;9.63;;;2.70;;
23370;SDS011;11858;51.056;3.712;2023-01-15T11:47:49;5.97;;;2.78;;
23370;SDS011;11858;51.056;3.712;2023-01-15T11:51:00;8.02;;;3.05;;
23370;SDS011;11858;51.056;3.712;2023-01-15T11:53:42;5.88;;;2.42;;
23370;SDS011;11858;51.056;3.712;2023-01-15T11:56:14;7.90;;;2.45;;
23370;SDS011;11858;51.056;3.712;2023-01-15T11:58:50;7.60;;;2.40;;
23370;SDS011;11858;51.056;3.712;2023-01-15T12:01:20;8.20;;;2.13;;
23370;SDS011;11858;51.056;3.712;2023-01-15T12:03:55;7.35;;;2.47;;
23370;SDS011;11858;51.056;3.712;2023-01-15T12:06:29;9.18;;;2.70;;
23370;SDS011;11858;51.056;3.712;2023-01-15T12:30:08;7.22;;;2.60;;
23370;SDS011;11858;51.056;3.712;2023-01-15T12:32:59;7.53;;;1.90;;
23370;SDS011;11858;51.056;3.712;2023-01-15T12:35:29;11.45;;;2.67;;
23370;SDS011;11858;51.056;3.712;2023-01-15T12:41:20;9.75;;;2.58;;
23370;SDS011;11858;51.056;3.712;2023-01-15T12:43:41;9.50;;;2.33;;
23370;SDS011;11858;51.056;3.712;2023-01-15T12:46:29;7.45;;;2.78;;
23370;SDS011;11858;51.056;3.712;2023-01-15T12:49:15;9.10;;;2.80;;
23370;SDS011;11858;51.056;3.712;2023-01-15T12:51:59;6.72;;;2.70;;
23370;SDS011;11858;51.056;3.712;2023-01-15T12:54:50;8.65;;;2.58;;
23370;SDS011;11858;51.056;3.712;2023-01-15T12:57:47;10.30;;;2.88;;
23370;SDS011;11858;51.056;3.712;2023-01-15T13:05:48;6.28;;;1.95;;
23370;SDS011;11858;51.056;3.712;2023-01-15T13:10:50;5.18;;;1.48;;
23370;SDS011;11858;51.056;3.712;2023-01-15T13:13:18;7.65;;;1.95;;
23370;SDS011;11858;51.056;3.712;2023-01-15T13:21:14;5.40;;;2.17;;
23370;SDS011;11858;51.056;3.712;2023-01-15T13:37:26;5.82;;;2.10;;
23370;SDS011;11858;51.056;3.712;2023-01-15T13:40:05;3.78;;;2.17;;
23370;SDS011;11858;51.056;3.712;2023-01-15T13:42:38;3.33;;;2.00;;
23370;SDS011;11858;51.056;3.712;2023-01-15T13:58:28;4.05;;;2.05;;
23370;SDS011;11858;51.056;3.712;2023-01-15T14:01:03;2.30;;;1.58;;
23370;SDS011;11858;51.056;3.712;2023-01-15T14:03:32;6.13;;;2.25;;
23370;SDS011;11858;51.056;3.712;2023-01-15T14:06:08;4.80;;;1.88;;
23370;SDS011;11858;51.056;3.712;2023-01-15T14:22:47;7.10;;;1.80;;
23370;SDS011;11858;51.056;3.712;2023-01-15T14:25:44;7.45;;;1.80;;
23370;SDS011;11858;51.056;3.712;2023-01-15T14:28:51;8.73;;;2.13;;
23370;SDS011;11858;51.056;3.712;2023-01-15T14:31:39;6.07;;;1.88;;
23370;SDS011;11858;51.056;3.712;2023-01-15T14:34:27;7.50;;;1.85;;
23370;SDS011;11858;51.056;3.712;2023-01-15T14:36:56;10.05;;;2.33;;
23370;SDS011;11858;51.056;3.712;2023-01-15T14:42:38;4.70;;;2.05;;
23370;SDS011;11858;51.056;3.712;2023-01-15T14:45:04;4.05;;;1.58;;
23370;SDS011;11858;51.056;3.712;2023-01-15T14:47:47;8.90;;;2.00;;
23370;SDS011;11858;51.056;3.712;2023-01-15T14:52:58;4.95;;;2.10;;
23370;SDS011;11858;51.056;3.712;2023-01-15T14:55:27;6.22;;;2.00;;
23370;SDS011;11858;51.056;3.712;2023-01-15T14:57:56;5.57;;;2.05;;
23370;SDS011;11858;51.056;3.712;2023-01-15T15:00:29;7.00;;;1.90;;
23370;SDS011;11858;51.056;3.712;2023-01-15T15:03:02;6.65;;;2.10;;
23370;SDS011;11858;51.056;3.712;2023-01-15T15:05:46;4.32;;;1.85;;
23370;SDS011;11858;51.056;3.712;2023-01-15T15:08:14;5.68;;;2.08;;
23370;SDS011;11858;51.056;3.712;2023-01-15T15:10:43;6.35;;;1.73;;
23370;SDS011;11858;51.056;3.712;2023-01-15T15:16:06;5.63;;;1.77;;
23370;SDS011;11858;51.056;3.712;2023-01-15T15:18:48;3.13;;;1.50;;
23370;SDS011;11858;51.056;3.712;2023-01-15T15:21:39;7.15;;;1.92;;
23370;SDS011;11858;51.056;3.712;2023-01-15T15:26:54;6.15;;;1.70;;
23370;SDS011;11858;51.056;3.712;2023-01-15T15:29:20;5.03;;;1.63;;
23370;SDS011;11858;51.056;3.712;2023-01-15T15:31:50;3.65;;;1.50;;
23370;SDS011;11858;51.056;3.712;2023-01-15T15:36:53;3.67;;;1.50;;
23370;SDS011;11858;51.056;3.712;2023-01-15T15:39:34;4.38;;;1.30;;
23370;SDS011;11858;51.056;3.712;2023-01-15T15:42:19;3.53;;;1.35;;
23370;SDS011;11858;51.056;3.712;2023-01-15T15:45:17;4.45;;;1.38;;
23370;SDS011;11858;51.056;3.712;2023-01-15T15:50:54;5.57;;;1.35;;
23370;SDS011;11858;51.056;3.712;2023-01-15T15:53:20;2.38;;;1.10;;
23370;SDS011;11858;51.056;3.712;2023-01-15T15:55:46;4.78;;;1.60;;
23370;SDS011;11858;51.056;3.712;2023-01-15T15:58:23;10.15;;;1.50;;
23370;SDS011;11858;51.056;3.712;2023-01-15T16:00:56;4.32;;;1.70;;
23370;SDS011;11858;51.056;3.712;2023-01-15T16:03:26;4.60;;;1.75;;
23370;SDS011;11858;51.056;3.712;2023-01-15T16:08:27;5.40;;;1.50;;
23370;SDS011;11858;51.056;3.712;2023-01-15T16:10:55;5.00;;;1.50;;
23370;SDS011;11858;51.056;3.712;2023-01-15T16:13:31;5.45;;;1.30;;
23370;SDS011;11858;51.056;3.712;2023-01-15T16:16:00;3.58;;;1.20;;
23370;SDS011;11858;51.056;3.712;2023-01-15T16:18:31;6.07;;;1.40;;
23370;SDS011;11858;51.056;3.712;2023-01-15T16:21:04;2.85;;;1.10;;
23370;SDS011;11858;51.056;3.712;2023-01-15T16:23:36;2.92;;;1.00;;
23370;SDS011;11858;51.056;3.712;2023-01-15T16:28:52;4.13;;;1.42;;
23370;SDS011;11858;51.056;3.712;2023-01-15T16:31:25;5.45;;;1.80;;
23370;SDS011;11858;51.056;3.712;2023-01-15T16:33:53;3.95;;;1.33;;
23370;SDS011;11858;51.056;3.712;2023-01-15T16:36:21;5.05;;;1.73;;
23370;SDS011;11858;51.056;3.712;2023-01-15T16:38:48;6.97;;;1.60;;
23370;SDS011;11858;51.056;3.712;2023-01-15T16:41:23;4.85;;;1.73;;
23370;SDS011;11858;51.056;3.712;2023-01-15T16:46:25;5.43;;;1.92;;
23370;SDS011;11858;51.056;3.712;2023-01-15T16:56:59;6.82;;;1.70;;
23370;SDS011;11858;51.056;3.712;2023-01-15T17:02:14;6.63;;;2.50;;
23370;SDS011;11858;51.056;3.712;2023-01-15T17:04:44;22.83;;;2.80;;
23370;SDS011;11858;51.056;3.712;2023-01-15T17:12:43;10.90;;;2.95;;
23370;SDS011;11858;51.056;3.712;2023-01-15T17:17:41;7.72;;;3.03;;
23370;SDS011;11858;51.056;3.712;2023-01-15T17:22:42;8.90;;;3.10;;
23370;SDS011;11858;51.056;3.712;2023-01-15T17:28:04;8.70;;;3.40;;
23370;SDS011;11858;51.056;3.712;2023-01-15T17:30:32;11.45;;;4.25;;
23370;SDS011;11858;51.056;3.712;2023-01-15T17:32:59;10.30;;;4.15;;
23370;SDS011;11858;51.056;3.712;2023-01-15T17:35:27;16.05;;;4.60;;
23370;SDS011;11858;51.056;3.712;2023-01-15T17:37:55;15.00;;;5.20;;
23370;SDS011;11858;51.056;3.712;2023-01-15T17:40:21;13.25;;;5.70;;
23370;SDS011;11858;51.056;3.712;2023-01-15T17:42:48;15.82;;;4.90;;
23370;SDS011;11858;51.056;3.712;2023-01-15T17:47:45;14.80;;;5.57;;
23370;SDS011;11858;51.056;3.712;2023-01-15T17:50:11;14.07;;;5.53;;
23370;SDS011;11858;51.056;3.712;2023-01-15T17:52:38;12.18;;;6.00;;
23370;SDS011;11858;51.056;3.712;2023-01-15T17:55:04;9.10;;;5.70;;
23370;SDS011;11858;51.056;3.712;2023-01-15T17:57:50;16.63;;;6.60;;
23370;SDS011;11858;51.056;3.712;2023-01-15T18:00:34;24.45;;;14.48;;
23370;SDS011;11858;51.056;3.712;2023-01-15T18:03:43;19.83;;;12.60;;
23370;SDS011;11858;51.056;3.712;2023-01-15T18:06:32;16.80;;;7.57;;
23370;SDS011;11858;51.056;3.712;2023-01-15T18:08:59;15.05;;;7.78;;
23370;SDS011;11858;51.056;3.712;2023-01-15T18:11:28;18.63;;;7.57;;
23370;SDS011;11858;51.056;3.712;2023-01-15T18:13:54;21.95;;;11.07;;
23370;SDS011;11858;51.056;3.712;2023-01-15T18:16:21;18.30;;;9.68;;
23370;SDS011;11858;51.056;3.712;2023-01-15T18:18:47;16.02;;;8.43;;
23370;SDS011;11858;51.056;3.712;2023-01-15T18:21:13;22.38;;;8.05;;
23370;SDS011;11858;51.056;3.712;2023-01-15T18:23:38;17.92;;;8.10;;
23370;SDS011;11858;51.056;3.712;2023-01-15T18:26:05;25.83;;;7.78;;